createdAt,value
2022-10-11T00:00:02.908Z,83.5
2022-10-11T00:05:13.426Z,84.3
2022-10-11T00:10:13.428Z,83.9
2022-10-11T00:15:13.410Z,84
2022-10-11T00:21:02.856Z,84
2022-10-11T00:26:03.395Z,85.4
2022-10-11T00:31:13.191Z,83.9
2022-10-11T00:36:13.234Z,84.6
2022-10-11T00:42:02.926Z,85.3
2022-10-11T00:47:13.172Z,84.7
2022-10-11T00:53:03.407Z,84.4
2022-10-11T00:58:13.217Z,83.3
2022-10-11T01:03:13.244Z,84.1
2022-10-11T01:09:02.954Z,83.8
2022-10-11T01:14:13.206Z,83.5
2022-10-11T01:19:13.204Z,85.1
2022-10-11T01:25:02.945Z,83.9
2022-10-11T01:30:13.213Z,83.4
2022-10-11T01:36:03.356Z,85.3
2022-10-11T01:41:02.949Z,85
2022-10-11T01:46:13.282Z,85.1
2022-10-11T01:51:13.356Z,84.8
2022-10-11T01:56:13.399Z,84.5
2022-10-11T02:02:02.889Z,84.7
2022-10-11T02:07:02.932Z,85.2
2022-10-11T02:12:02.996Z,84.6
2022-10-11T02:17:13.212Z,84.8
2022-10-11T02:22:13.208Z,83.6
2022-10-11T02:27:13.475Z,84.2
2022-10-11T02:33:02.898Z,84.8
2022-10-11T02:38:02.916Z,83.2
2022-10-11T02:43:13.441Z,83.2
2022-10-11T02:49:02.877Z,81.9
2022-10-11T02:54:13.381Z,82.8
2022-10-11T03:00:02.928Z,84
2022-10-11T03:05:13.211Z,83.8
2022-10-11T03:11:02.922Z,85.2
2022-10-11T03:16:13.443Z,85.8
2022-10-11T03:22:02.940Z,86.3
2022-10-11T03:27:13.191Z,85.5
2022-10-11T03:32:13.472Z,85.3
2022-10-11T03:38:02.930Z,85.6
2022-10-11T03:43:02.935Z,89
2022-10-11T03:48:13.425Z,89.1
2022-10-11T03:53:13.431Z,89.3
2022-10-11T03:59:02.928Z,89
2022-10-11T04:04:13.203Z,90.2
2022-10-11T04:09:13.361Z,88.9
2022-10-11T04:14:13.377Z,86
2022-10-11T04:20:03.124Z,88.4
2022-10-11T04:25:13.277Z,88.8
2022-10-11T04:30:13.387Z,88.5
2022-10-11T04:36:03.633Z,89.1
2022-10-11T04:41:13.365Z,88.6
2022-10-11T04:47:03.018Z,87.4
2022-10-11T04:52:13.399Z,86.9
2022-10-11T04:57:13.537Z,87
2022-10-11T05:03:02.985Z,86.8
2022-10-11T05:08:03.025Z,88.2
2022-10-11T05:13:13.397Z,87.1
2022-10-11T05:18:13.398Z,87.8
2022-10-11T05:24:03.030Z,88.6
2022-10-11T05:29:13.388Z,87.9
2022-10-11T05:34:13.396Z,87.1
2022-10-11T05:40:02.930Z,88.1
2022-10-11T05:45:13.362Z,88.6
2022-10-11T05:51:02.853Z,87.8
2022-10-11T05:56:03.266Z,89.8
2022-10-11T06:01:13.463Z,89
2022-10-11T06:07:02.798Z,89.8
2022-10-11T06:12:02.852Z,89.4
2022-10-11T06:17:02.854Z,89.1
2022-10-11T06:22:02.905Z,88
2022-10-11T06:27:13.397Z,87.2
2022-10-11T06:33:05.006Z,88.1
2022-10-11T06:38:13.388Z,86.7
2022-10-11T06:44:02.963Z,88.4
2022-10-11T06:49:02.890Z,85.5
2022-10-11T06:54:13.162Z,85.2
2022-10-11T07:00:02.876Z,86.5
2022-10-11T07:05:02.879Z,83.9
2022-10-11T07:10:13.140Z,86.6
2022-10-11T07:16:03.425Z,85.4
2022-10-11T07:21:13.145Z,88.4
2022-10-11T07:26:13.141Z,85.4
2022-10-11T07:31:13.176Z,85.7
2022-10-11T07:36:13.184Z,83.3
2022-10-11T07:42:02.822Z,86
2022-10-11T07:47:04.194Z,84.9
2022-10-11T07:52:02.866Z,85.1
2022-10-11T07:57:13.233Z,84.2
2022-10-11T08:02:13.348Z,82.3
2022-10-11T08:07:13.381Z,85.1
2022-10-11T08:13:04.518Z,82.1
2022-10-11T08:18:13.377Z,82.9
2022-10-11T08:23:13.363Z,78.9
2022-10-11T08:28:22.720Z,77.3
2022-10-11T08:34:03.124Z,76.7
2022-10-11T08:39:03.080Z,78.8
2022-10-11T08:44:03.085Z,79.2
2022-10-11T08:49:13.397Z,81.7
2022-10-11T08:54:13.410Z,79.3
2022-10-11T09:00:03.109Z,77.4
2022-10-11T09:05:13.223Z,76.9
2022-10-11T09:10:13.342Z,76.1
2022-10-11T09:15:13.378Z,75.5
2022-10-11T09:21:02.849Z,75.5
2022-10-11T09:26:03.713Z,75.3
2022-10-11T09:31:13.362Z,76.7
2022-10-11T09:37:03.109Z,76.5
2022-10-11T09:43:03.072Z,73.8
2022-10-11T09:48:13.674Z,75.2
2022-10-11T09:54:02.880Z,75.1
2022-10-11T09:59:13.359Z,73.3
2022-10-11T10:05:03.103Z,76.3
2022-10-11T10:10:13.245Z,74.3
2022-10-11T10:15:13.377Z,75.2
2022-10-11T10:21:03.104Z,76.7
2022-10-11T10:26:13.174Z,72.5
2022-10-11T10:31:13.323Z,72.1
2022-10-11T10:37:02.850Z,72.2
2022-10-11T10:42:02.905Z,72.4
2022-10-11T10:47:03.206Z,73.1
2022-10-11T10:52:13.340Z,70.6
2022-10-11T10:57:13.386Z,71
2022-10-11T11:04:02.898Z,69.4
2022-10-11T11:09:03.152Z,70.8
2022-10-11T11:14:13.367Z,67.4
2022-10-11T11:20:03.092Z,67.9
2022-10-11T11:25:13.330Z,70.7
2022-10-11T11:30:13.502Z,71.5
2022-10-11T11:35:13.414Z,70.9
2022-10-11T11:41:03.344Z,70.4
2022-10-11T11:46:13.360Z,68.4
2022-10-11T11:51:13.351Z,70
2022-10-11T11:57:03.097Z,68.3
2022-10-11T12:02:13.254Z,67.6
2022-10-11T12:08:02.855Z,64.9
2022-10-11T12:13:03.069Z,64.4
2022-10-11T12:18:03.104Z,64.4
2022-10-11T12:23:16.672Z,64.2
2022-10-11T12:28:13.467Z,62.6
2022-10-11T12:33:13.426Z,62.2
2022-10-11T12:39:03.088Z,62.4
2022-10-11T12:44:03.130Z,61
2022-10-11T12:49:21.423Z,58.8
2022-10-11T12:55:02.899Z,59.6
2022-10-11T13:00:02.910Z,59.4
2022-10-11T13:05:13.175Z,60.8
2022-10-11T13:11:02.885Z,62.1
2022-10-11T13:16:03.283Z,59.2
2022-10-11T13:21:13.171Z,60
2022-10-11T13:26:13.139Z,59.4
2022-10-11T13:31:13.172Z,59
2022-10-11T13:37:02.942Z,58.1
2022-10-11T13:42:13.147Z,60.5
2022-10-11T13:47:13.214Z,59
2022-10-11T13:52:13.460Z,57.3
2022-10-11T13:58:02.891Z,56.4
2022-10-11T14:03:02.973Z,55.5
2022-10-11T14:08:03.135Z,54.1
2022-10-11T14:13:03.125Z,56.1
2022-10-11T14:18:03.123Z,57.7
2022-10-11T14:23:13.396Z,55.9
2022-10-11T14:29:03.206Z,56.3
2022-10-11T14:34:13.237Z,58.7
2022-10-11T14:39:13.385Z,54
2022-10-11T14:44:13.375Z,53.1
2022-10-11T14:50:03.182Z,54.1
2022-10-11T14:55:03.163Z,52.8
2022-10-11T15:00:22.432Z,53.4
2022-10-11T15:06:03.215Z,53.6
2022-10-11T15:11:02.947Z,52.8
2022-10-11T15:16:03.456Z,56.8
2022-10-11T15:25:13.350Z,55.2
2022-10-11T15:31:03.112Z,54.6
2022-10-11T15:36:03.443Z,55.6
2022-10-11T15:41:03.140Z,55.1
2022-10-11T15:46:13.416Z,54.8
2022-10-11T15:52:03.085Z,56.7
2022-10-11T15:57:13.169Z,56.5
2022-10-11T16:02:13.408Z,58
2022-10-11T16:08:02.892Z,60
2022-10-11T16:13:03.110Z,62.4
2022-10-11T16:18:13.182Z,62.4
2022-10-11T16:23:13.389Z,63.4
2022-10-11T16:29:02.851Z,64.5
2022-10-11T16:34:03.161Z,66.4
2022-10-11T16:40:03.094Z,67.2
2022-10-11T16:45:13.272Z,70
2022-10-11T16:50:13.402Z,70.6
2022-10-11T16:56:03.375Z,72.8
2022-10-11T17:01:13.484Z,74
2022-10-11T17:07:03.187Z,75.3
2022-10-11T17:12:13.415Z,75
2022-10-11T17:18:03.089Z,76.2
2022-10-11T17:23:03.142Z,77
2022-10-11T17:28:13.439Z,79.1
2022-10-11T17:34:02.911Z,77.1
2022-10-11T17:39:03.210Z,77.5
2022-10-11T17:44:13.195Z,79.4
2022-10-11T17:49:13.455Z,79.5
2022-10-11T17:55:02.962Z,79.4
2022-10-11T18:00:03.118Z,80.9
2022-10-11T18:05:13.409Z,81.2
2022-10-11T18:10:13.458Z,82.1
2022-10-11T18:16:03.109Z,81.3
2022-10-11T18:21:13.440Z,82
2022-10-11T18:27:03.125Z,81.8
2022-10-11T18:32:03.126Z,82.1
2022-10-11T18:37:03.122Z,82.2
2022-10-11T18:42:13.399Z,82.4
2022-10-11T18:47:13.475Z,81.6
2022-10-11T18:58:13.216Z,82.9
2022-10-11T19:03:13.424Z,82.3
2022-10-11T19:09:02.905Z,82.6
2022-10-11T19:14:13.181Z,83.6
2022-10-11T19:19:13.181Z,81.7
2022-10-11T19:24:13.199Z,82.8
2022-10-11T19:29:13.202Z,81.2
2022-10-11T19:35:02.916Z,80.2
2022-10-11T19:40:02.956Z,80.1
2022-10-11T19:45:02.976Z,79.1
2022-10-11T19:50:13.260Z,79.4
2022-10-11T19:56:03.015Z,78.8
2022-10-11T20:01:13.215Z,78.4
2022-10-11T20:07:02.947Z,77.8
2022-10-11T20:12:02.964Z,77.6
2022-10-11T20:17:02.978Z,76.9
2022-10-11T20:22:13.238Z,78.3
2022-10-11T20:27:13.212Z,78.6
2022-10-11T20:32:13.412Z,78
2022-10-11T20:38:03.150Z,78.7
2022-10-11T20:43:13.464Z,78.4
2022-10-11T20:49:02.917Z,78.6
2022-10-11T20:54:03.141Z,78.7
2022-10-11T20:59:13.169Z,78.8
2022-10-11T21:04:13.236Z,80.1
2022-10-11T21:09:23.687Z,79.2
2022-10-11T21:15:03.077Z,79.5
2022-10-11T21:20:03.102Z,80
2022-10-11T21:25:13.408Z,79.8
2022-10-11T21:30:22.422Z,80.5
2022-10-11T21:36:03.094Z,80.8
2022-10-11T21:41:03.129Z,80.6
2022-10-11T21:46:13.367Z,80.6
2022-10-11T21:57:03.161Z,82.2
2022-10-11T22:02:13.155Z,81.9
2022-10-11T22:07:13.351Z,82.8
2022-10-11T22:12:13.444Z,83.1
2022-10-11T22:18:03.107Z,83
2022-10-11T22:23:13.160Z,82.6
2022-10-11T22:28:13.531Z,83.5
2022-10-11T22:34:03.122Z,82.7
2022-10-11T22:39:13.368Z,83.1
2022-10-11T22:44:13.423Z,82.9
2022-10-11T22:49:13.397Z,84
2022-10-11T22:55:03.090Z,81.9
2022-10-11T23:00:03.142Z,83.1
2022-10-11T23:05:13.407Z,83.3
2022-10-11T23:11:03.094Z,82.7
2022-10-11T23:16:13.465Z,82
2022-10-11T23:22:03.110Z,82.4
2022-10-11T23:27:13.363Z,82
2022-10-11T23:32:13.422Z,82.6
2022-10-11T23:38:03.094Z,82.4
2022-10-11T23:43:13.429Z,82.3
2022-10-11T23:49:03.141Z,81.5
2022-10-11T23:54:13.357Z,82.7
2022-10-11T23:59:13.388Z,84
